createdAt,value
2022-07-26T00:01:04.159Z,738.03
2022-07-26T00:03:31.881Z,725.90
2022-07-26T00:05:59.475Z,739.15
2022-07-26T00:08:26.837Z,751.03
2022-07-26T00:10:56.549Z,736.30
2022-07-26T00:13:23.936Z,709.65
2022-07-26T00:15:57.506Z,708.22
2022-07-26T00:18:27.759Z,713.75
2022-07-26T00:20:55.567Z,654.35
2022-07-26T00:23:25.683Z,662.20
2022-07-26T00:25:52.968Z,660.70
2022-07-26T00:28:20.301Z,664.85
2022-07-26T00:30:50.653Z,660.92
2022-07-26T00:33:18.013Z,669.47
2022-07-26T00:35:45.279Z,701.95
2022-07-26T00:38:12.568Z,725.08
2022-07-26T00:40:42.328Z,762.75
2022-07-26T00:43:12.010Z,760.75
2022-07-26T00:45:39.321Z,760.25
2022-07-26T00:48:06.922Z,724.97
2022-07-26T00:50:34.498Z,731.17
2022-07-26T00:53:02.294Z,691.30
2022-07-26T00:55:32.107Z,686.40
2022-07-26T00:58:01.300Z,697.92
2022-07-26T01:00:29.400Z,693.92
2022-07-26T01:03:02.626Z,700.60
2022-07-26T01:05:30.310Z,668.47
2022-07-26T01:08:00.328Z,685.97
2022-07-26T01:10:30.317Z,690.95
2022-07-26T01:12:59.705Z,675.65
2022-07-26T01:15:29.460Z,685.88
2022-07-26T01:17:56.716Z,681.65
2022-07-26T01:20:24.477Z,656.50
2022-07-26T01:22:51.831Z,676.97
2022-07-26T01:25:32.427Z,644.25
2022-07-26T01:28:02.634Z,641.80
2022-07-26T01:30:30.069Z,654.38
2022-07-26T01:32:57.375Z,671.67
2022-07-26T01:35:31.880Z,664.22
2022-07-26T01:38:01.385Z,646.03
2022-07-26T01:40:28.644Z,640.78
2022-07-26T01:42:55.964Z,641.95
2022-07-26T01:45:24.776Z,642.97
2022-07-26T01:47:52.175Z,639.88
2022-07-26T01:50:19.526Z,651.75
2022-07-26T01:52:46.790Z,617.70
2022-07-26T01:55:18.867Z,670.67
2022-07-26T01:57:46.940Z,659.25
2022-07-26T02:00:14.941Z,654.53
2022-07-26T02:02:42.543Z,650.92
2022-07-26T02:05:10.384Z,655.53
2022-07-26T02:07:42.838Z,667.58
2022-07-26T02:10:14.612Z,648.33
2022-07-26T02:12:42.463Z,670.05
2022-07-26T02:15:11.643Z,693.85
2022-07-26T02:17:38.907Z,661.90
2022-07-26T02:20:08.274Z,684.72
2022-07-26T02:22:38.810Z,664.63
2022-07-26T02:25:09.266Z,659.58
2022-07-26T02:27:37.030Z,666.17
2022-07-26T02:30:04.677Z,689.25
2022-07-26T02:32:32.016Z,697.85
2022-07-26T02:35:02.227Z,700.00
2022-07-26T02:37:32.033Z,694.63
2022-07-26T02:40:15.549Z,689.20
2022-07-26T02:42:46.665Z,702.63
2022-07-26T02:45:16.458Z,701.92
2022-07-26T02:47:53.998Z,708.65
2022-07-26T02:50:24.459Z,706.00
2022-07-26T02:52:52.879Z,682.58
2022-07-26T02:55:22.458Z,712.45
2022-07-26T02:57:50.446Z,722.78
2022-07-26T03:00:24.665Z,729.50
2022-07-26T03:02:53.328Z,721.00
2022-07-26T03:05:21.792Z,701.35
2022-07-26T03:07:49.928Z,704.35
2022-07-26T03:10:17.841Z,711.20
2022-07-26T03:12:45.562Z,711.28
2022-07-26T03:15:13.375Z,711.00
2022-07-26T03:17:41.234Z,709.42
2022-07-26T03:20:09.631Z,703.50
2022-07-26T03:22:37.452Z,724.28
2022-07-26T03:25:05.679Z,709.90
2022-07-26T03:27:33.342Z,710.47
2022-07-26T03:30:00.670Z,704.92
2022-07-26T03:32:27.954Z,718.67
2022-07-26T03:34:55.287Z,723.97
2022-07-26T03:37:23.302Z,720.60
2022-07-26T03:39:50.839Z,721.50
2022-07-26T03:42:18.563Z,712.60
2022-07-26T03:44:46.371Z,708.22
2022-07-26T03:47:16.384Z,720.70
2022-07-26T03:49:44.144Z,715.95
2022-07-26T03:52:11.577Z,709.03
2022-07-26T03:54:38.921Z,736.92
2022-07-26T03:57:06.835Z,741.28
2022-07-26T03:59:34.334Z,750.63
2022-07-26T04:02:01.941Z,725.22
2022-07-26T04:04:29.446Z,746.28
2022-07-26T04:06:56.971Z,736.65
2022-07-26T04:09:24.433Z,732.78
2022-07-26T04:11:54.380Z,748.00
2022-07-26T04:14:21.740Z,724.65
2022-07-26T04:16:51.415Z,732.50
2022-07-26T04:19:18.763Z,734.03
2022-07-26T04:21:46.044Z,744.83
2022-07-26T04:24:13.337Z,745.08
2022-07-26T04:26:40.704Z,758.42
2022-07-26T04:29:12.700Z,750.42
2022-07-26T04:31:40.426Z,759.92
2022-07-26T04:34:08.436Z,730.92
2022-07-26T04:36:36.543Z,747.88
2022-07-26T04:39:03.957Z,751.30
2022-07-26T04:41:31.331Z,746.08
2022-07-26T04:43:58.951Z,753.75
2022-07-26T04:46:29.036Z,748.85
2022-07-26T04:48:56.940Z,760.28
2022-07-26T04:51:25.777Z,748.83
2022-07-26T04:53:53.083Z,757.60
2022-07-26T04:56:20.371Z,752.50
2022-07-26T04:58:47.770Z,742.97
2022-07-26T05:01:15.212Z,749.25
2022-07-26T05:03:42.558Z,741.67
2022-07-26T05:06:13.908Z,759.20
2022-07-26T05:08:43.363Z,737.30
2022-07-26T05:11:11.463Z,749.42
2022-07-26T05:13:39.271Z,763.20
2022-07-26T05:16:11.536Z,748.08
2022-07-26T05:18:45.703Z,742.17
2022-07-26T05:21:19.013Z,756.83
2022-07-26T05:23:49.853Z,746.75
2022-07-26T05:26:17.283Z,750.08
2022-07-26T05:28:45.787Z,776.42
2022-07-26T05:31:16.268Z,764.03
2022-07-26T05:33:44.139Z,752.53
2022-07-26T05:36:11.609Z,765.63
2022-07-26T05:38:39.497Z,762.40
2022-07-26T05:41:07.793Z,773.85
2022-07-26T05:43:41.444Z,760.40
2022-07-26T05:46:16.026Z,761.58
2022-07-26T05:48:44.683Z,774.97
2022-07-26T05:51:12.268Z,747.47
2022-07-26T05:53:42.049Z,761.70
2022-07-26T05:56:09.311Z,767.28
2022-07-26T05:58:39.383Z,763.97
2022-07-26T06:01:10.135Z,755.88
2022-07-26T06:03:40.334Z,765.40
2022-07-26T06:06:08.438Z,754.13
2022-07-26T06:08:36.608Z,766.17
2022-07-26T06:11:04.122Z,763.90
2022-07-26T06:13:33.274Z,761.40
2022-07-26T06:16:01.166Z,750.75
2022-07-26T06:18:29.418Z,743.08
2022-07-26T06:21:02.083Z,775.97
2022-07-26T06:23:33.579Z,723.22
2022-07-26T06:26:07.810Z,730.92
2022-07-26T06:28:38.585Z,704.45
2022-07-26T06:31:06.548Z,732.10
2022-07-26T06:33:35.983Z,724.58
2022-07-26T06:36:03.381Z,696.53
2022-07-26T06:38:30.667Z,680.28
2022-07-26T06:40:59.081Z,727.00
2022-07-26T06:43:26.420Z,695.13
2022-07-26T06:45:53.996Z,704.28
2022-07-26T06:48:22.062Z,703.85
2022-07-26T06:50:50.292Z,650.22
2022-07-26T06:53:17.748Z,656.08
2022-07-26T06:55:46.038Z,630.13
2022-07-26T06:58:15.813Z,646.22
2022-07-26T07:00:44.295Z,583.17
2022-07-26T07:03:14.255Z,623.25
2022-07-26T07:05:45.298Z,593.60
2022-07-26T07:08:17.217Z,587.38
2022-07-26T07:10:45.521Z,612.90
2022-07-26T07:13:16.743Z,630.08
2022-07-26T07:15:44.087Z,653.13
2022-07-26T07:18:11.991Z,659.03
2022-07-26T07:20:41.145Z,651.60
2022-07-26T07:23:08.460Z,668.63
2022-07-26T07:25:36.169Z,646.60
2022-07-26T07:28:03.673Z,683.53
2022-07-26T07:30:30.998Z,668.15
2022-07-26T07:32:58.332Z,676.15
2022-07-26T07:35:31.737Z,692.08
2022-07-26T07:37:59.747Z,688.38
2022-07-26T07:40:27.904Z,687.58
2022-07-26T07:43:00.173Z,696.22
2022-07-26T07:45:27.884Z,717.10
2022-07-26T07:47:55.945Z,712.70
2022-07-26T07:50:27.123Z,734.00
2022-07-26T07:52:58.051Z,702.20
2022-07-26T07:55:46.009Z,691.22
2022-07-26T07:58:18.923Z,694.97
2022-07-26T08:00:48.909Z,691.05
2022-07-26T08:03:19.142Z,738.85
2022-07-26T08:05:52.776Z,687.75
2022-07-26T08:08:26.668Z,718.22
2022-07-26T08:10:54.699Z,682.30
2022-07-26T08:13:26.728Z,684.13
2022-07-26T08:15:55.834Z,695.03
2022-07-26T08:18:25.452Z,689.95
2022-07-26T08:20:59.458Z,681.70
2022-07-26T08:23:27.040Z,636.50
2022-07-26T08:25:57.901Z,647.25
2022-07-26T08:28:47.221Z,645.70
2022-07-26T08:31:16.649Z,673.63
2022-07-26T08:33:46.406Z,690.33
2022-07-26T08:36:16.246Z,674.28
2022-07-26T08:38:48.143Z,704.55
2022-07-26T08:41:19.851Z,666.92
2022-07-26T08:43:52.970Z,686.70
2022-07-26T08:46:27.427Z,686.53
2022-07-26T08:48:58.595Z,724.40
2022-07-26T08:51:27.034Z,682.53
2022-07-26T08:54:02.229Z,667.85
2022-07-26T08:56:36.868Z,674.55
2022-07-26T08:59:20.135Z,660.47
2022-07-26T09:01:59.194Z,654.55
2022-07-26T09:04:44.507Z,656.80
2022-07-26T09:07:18.144Z,653.78
2022-07-26T09:10:07.561Z,651.05
2022-07-26T09:12:35.587Z,608.15
2022-07-26T09:15:07.815Z,592.42
2022-07-26T09:17:44.736Z,607.88
2022-07-26T09:20:24.245Z,611.17
2022-07-26T09:23:05.373Z,566.75
2022-07-26T09:25:43.599Z,689.55
2022-07-26T09:28:29.894Z,501.48
2022-07-26T09:31:03.277Z,474.98
2022-07-26T09:36:21.731Z,530.97
2022-07-26T09:38:53.743Z,500.05
2022-07-26T09:41:32.674Z,498.85
2022-07-26T09:44:05.098Z,478.85
2022-07-26T09:46:37.878Z,447.73
2022-07-26T09:49:19.456Z,459.70
2022-07-26T09:51:49.035Z,479.60
2022-07-26T09:54:35.605Z,496.55
2022-07-26T09:57:03.974Z,568.63
2022-07-26T09:59:31.809Z,514.92
2022-07-26T10:02:00.927Z,422.80
2022-07-26T10:04:30.136Z,513.80
2022-07-26T10:06:58.498Z,410.45
2022-07-26T10:09:32.670Z,483.92
2022-07-26T10:12:09.031Z,437.33
2022-07-26T10:14:39.150Z,422.63
2022-07-26T10:17:35.162Z,480.85
2022-07-26T10:20:16.828Z,550.50
2022-07-26T10:22:52.606Z,517.50
2022-07-26T10:27:51.041Z,518.38
2022-07-26T10:30:18.520Z,546.67
2022-07-26T10:33:01.535Z,581.38
2022-07-26T10:35:36.335Z,471.42
2022-07-26T10:38:12.532Z,486.83
2022-07-26T10:41:02.315Z,439.83
2022-07-26T10:43:40.517Z,483.33
2022-07-26T10:46:20.643Z,492.15
2022-07-26T10:49:10.251Z,516.05
2022-07-26T10:51:41.290Z,459.00
2022-07-26T10:54:16.881Z,537.63
2022-07-26T10:56:44.281Z,506.38
2022-07-26T10:59:12.264Z,541.42
2022-07-26T11:01:45.415Z,562.35
2022-07-26T11:04:22.109Z,564.22
2022-07-26T11:06:49.539Z,639.30
2022-07-26T11:09:18.933Z,717.05
2022-07-26T11:11:52.374Z,687.67
2022-07-26T11:14:19.773Z,642.67
2022-07-26T11:16:50.335Z,610.92
2022-07-26T11:19:25.983Z,582.42
2022-07-26T11:21:59.757Z,578.85
2022-07-26T11:24:29.411Z,560.33
2022-07-26T11:27:02.494Z,572.17
2022-07-26T11:29:40.501Z,522.70
2022-07-26T11:32:18.694Z,529.40
2022-07-26T11:35:01.583Z,547.63
2022-07-26T11:37:29.906Z,599.25
2022-07-26T11:39:59.854Z,608.33
2022-07-26T11:42:27.202Z,598.92
2022-07-26T11:44:55.345Z,581.35
2022-07-26T11:47:27.009Z,602.00
2022-07-26T11:50:18.311Z,591.47
2022-07-26T11:52:44.227Z,613.95
2022-07-26T11:55:12.419Z,612.05
2022-07-26T11:57:40.551Z,623.67
2022-07-26T12:00:11.304Z,631.85
2022-07-26T12:02:39.461Z,635.03
2022-07-26T12:05:18.879Z,622.63
2022-07-26T12:08:04.283Z,641.17
2022-07-26T12:10:32.153Z,627.55
2022-07-26T12:13:15.341Z,625.17
2022-07-26T12:15:52.774Z,607.03
2022-07-26T12:18:29.137Z,581.08
2022-07-26T12:21:05.042Z,603.95
2022-07-26T12:24:00.183Z,630.85
2022-07-26T12:26:30.840Z,627.28
2022-07-26T12:28:59.805Z,599.72
2022-07-26T12:31:32.473Z,621.22
2022-07-26T12:34:02.546Z,609.65
2022-07-26T12:36:33.819Z,588.33
2022-07-26T12:39:04.934Z,555.22
2022-07-26T12:41:41.634Z,517.47
2022-07-26T12:44:12.718Z,547.20
2022-07-26T12:46:41.010Z,528.72
2022-07-26T12:49:08.947Z,524.50
2022-07-26T12:51:38.979Z,527.85
2022-07-26T12:54:07.451Z,521.03
2022-07-26T12:56:35.200Z,518.50
2022-07-26T12:59:03.305Z,527.13
2022-07-26T13:01:33.122Z,512.53
2022-07-26T13:04:01.093Z,533.60
2022-07-26T13:06:28.626Z,502.42
2022-07-26T13:08:56.593Z,499.00
2022-07-26T13:11:24.982Z,514.17
2022-07-26T13:13:52.393Z,544.97
2022-07-26T13:16:22.573Z,564.22
2022-07-26T13:18:49.988Z,557.38
2022-07-26T13:21:17.759Z,547.33
2022-07-26T13:23:45.112Z,546.15
2022-07-26T13:26:16.066Z,537.97
2022-07-26T13:28:43.812Z,586.97
2022-07-26T13:31:12.823Z,530.83
2022-07-26T13:33:42.709Z,571.53
2022-07-26T13:36:10.387Z,542.92
2022-07-26T13:38:40.564Z,539.53
2022-07-26T13:41:09.003Z,549.78
2022-07-26T13:43:36.312Z,553.65
2022-07-26T13:46:10.013Z,537.75
2022-07-26T13:48:37.441Z,538.20
2022-07-26T13:51:05.441Z,562.40
2022-07-26T13:53:36.336Z,564.63
2022-07-26T13:56:22.195Z,576.45
2022-07-26T13:58:53.076Z,543.72
2022-07-26T14:01:21.201Z,555.35
2022-07-26T14:04:10.564Z,513.03
2022-07-26T14:06:39.704Z,523.60
2022-07-26T14:09:12.817Z,534.50
2022-07-26T14:11:44.865Z,510.70
2022-07-26T14:14:13.181Z,487.88
2022-07-26T14:16:40.998Z,492.13
2022-07-26T14:19:11.654Z,494.92
2022-07-26T14:21:58.757Z,480.80
2022-07-26T14:24:28.132Z,505.15
2022-07-26T14:26:59.315Z,530.95
2022-07-26T14:29:27.619Z,512.65
2022-07-26T14:31:55.044Z,526.20
2022-07-26T14:34:24.592Z,567.67
2022-07-26T14:36:51.998Z,548.38
2022-07-26T14:39:21.902Z,558.83
2022-07-26T14:41:49.602Z,577.88
2022-07-26T14:44:19.689Z,559.70
2022-07-26T14:46:47.142Z,535.63
2022-07-26T14:49:19.359Z,536.20
2022-07-26T14:51:48.040Z,564.42
2022-07-26T14:54:17.348Z,537.20
2022-07-26T14:56:45.175Z,529.75
2022-07-26T14:59:12.479Z,528.83
2022-07-26T15:01:39.950Z,518.72
2022-07-26T15:04:07.478Z,523.60
2022-07-26T15:06:35.004Z,521.60
2022-07-26T15:09:02.421Z,524.20
2022-07-26T15:11:31.804Z,534.47
2022-07-26T15:14:05.480Z,512.50
2022-07-26T15:16:33.733Z,535.70
2022-07-26T15:19:01.143Z,526.55
2022-07-26T15:21:28.965Z,503.63
2022-07-26T15:23:58.470Z,519.92
2022-07-26T15:26:28.432Z,517.45
2022-07-26T15:28:56.286Z,500.95
2022-07-26T15:31:24.786Z,541.78
2022-07-26T15:34:11.172Z,550.00
2022-07-26T15:36:38.865Z,532.78
2022-07-26T15:39:18.554Z,530.05
2022-07-26T15:41:47.616Z,525.20
2022-07-26T15:44:19.525Z,538.47
2022-07-26T15:46:51.857Z,560.55
2022-07-26T15:49:19.294Z,544.58
2022-07-26T15:51:46.757Z,533.65
2022-07-26T15:54:16.147Z,549.00
2022-07-26T15:56:46.556Z,566.78
2022-07-26T15:59:16.468Z,537.53
2022-07-26T16:01:44.539Z,545.17
2022-07-26T16:04:14.851Z,558.95
2022-07-26T16:06:43.235Z,534.40
2022-07-26T16:09:17.047Z,513.28
2022-07-26T16:11:46.103Z,528.47
2022-07-26T16:14:18.913Z,534.92
2022-07-26T16:16:46.359Z,549.95
2022-07-26T16:19:14.387Z,557.35
2022-07-26T16:21:41.920Z,559.33
2022-07-26T16:24:10.800Z,567.13
2022-07-26T16:26:38.396Z,541.15
2022-07-26T16:29:06.549Z,557.90
2022-07-26T16:31:34.201Z,545.65
2022-07-26T16:34:01.934Z,576.60
2022-07-26T16:36:29.766Z,577.53
2022-07-26T16:38:59.872Z,565.55
2022-07-26T16:41:29.032Z,560.85
2022-07-26T16:43:56.856Z,568.00
2022-07-26T16:46:25.146Z,548.67
2022-07-26T16:48:55.170Z,562.17
2022-07-26T16:51:22.922Z,556.20
2022-07-26T16:53:53.861Z,555.70
2022-07-26T16:56:23.610Z,547.53
2022-07-26T16:58:51.425Z,546.55
2022-07-26T17:01:21.064Z,537.17
2022-07-26T17:03:48.492Z,574.30
2022-07-26T17:06:18.232Z,552.13
2022-07-26T17:08:48.131Z,557.83
2022-07-26T17:11:18.073Z,551.80
2022-07-26T17:13:45.881Z,554.58
2022-07-26T17:16:15.569Z,551.70
2022-07-26T17:18:49.131Z,534.97
2022-07-26T17:21:16.457Z,536.55
2022-07-26T17:23:46.301Z,540.88
2022-07-26T17:26:13.872Z,542.90
2022-07-26T17:28:41.349Z,524.15
2022-07-26T17:31:09.236Z,540.75
2022-07-26T17:33:37.429Z,528.97
2022-07-26T17:36:22.228Z,554.65
2022-07-26T17:38:51.000Z,551.45
2022-07-26T17:41:20.034Z,524.30
2022-07-26T17:43:50.745Z,539.90
2022-07-26T17:46:18.270Z,530.88
2022-07-26T17:48:48.802Z,543.05
2022-07-26T17:51:20.551Z,537.85
2022-07-26T17:53:53.014Z,537.20
2022-07-26T17:56:23.596Z,533.25
2022-07-26T17:58:51.295Z,525.88
2022-07-26T18:01:18.763Z,497.52
2022-07-26T18:03:49.918Z,497.20
2022-07-26T18:06:18.619Z,519.05
2022-07-26T18:08:46.027Z,513.63
2022-07-26T18:11:13.397Z,501.70
2022-07-26T18:13:40.961Z,480.48
2022-07-26T18:16:08.983Z,492.55
2022-07-26T18:18:36.894Z,500.58
2022-07-26T18:21:07.581Z,480.55
2022-07-26T18:23:34.895Z,487.13
2022-07-26T18:26:02.705Z,496.13
2022-07-26T18:28:32.498Z,535.67
2022-07-26T18:31:00.558Z,547.17
2022-07-26T18:33:31.755Z,555.17
2022-07-26T18:36:00.956Z,563.38
2022-07-26T18:38:28.581Z,571.10
2022-07-26T18:40:56.907Z,564.03
2022-07-26T18:43:24.202Z,564.55
2022-07-26T18:45:54.421Z,573.15
2022-07-26T18:48:25.258Z,581.53
2022-07-26T18:51:00.574Z,580.72
2022-07-26T18:53:32.327Z,597.57
2022-07-26T18:56:01.903Z,597.90
2022-07-26T18:58:32.505Z,587.80
2022-07-26T19:00:59.773Z,603.63
2022-07-26T19:03:27.110Z,578.95
2022-07-26T19:05:56.679Z,587.55
2022-07-26T19:08:24.363Z,592.35
2022-07-26T19:10:51.726Z,583.88
2022-07-26T19:13:19.054Z,585.38
2022-07-26T19:15:49.051Z,607.63
2022-07-26T19:18:18.974Z,597.67
2022-07-26T19:20:47.412Z,611.42
2022-07-26T19:23:15.263Z,599.15
2022-07-26T19:25:45.207Z,598.95
2022-07-26T19:28:15.270Z,597.78
2022-07-26T19:30:45.676Z,582.53
2022-07-26T19:33:13.555Z,626.47
2022-07-26T19:35:40.830Z,596.35
2022-07-26T19:38:08.156Z,592.03
2022-07-26T19:40:37.572Z,579.42
2022-07-26T19:43:05.153Z,597.88
2022-07-26T19:45:35.553Z,588.53
2022-07-26T19:48:05.034Z,587.13
2022-07-26T19:50:35.340Z,584.63
2022-07-26T19:53:03.520Z,593.80
2022-07-26T19:55:33.059Z,600.60
2022-07-26T19:58:02.683Z,589.58
2022-07-26T20:00:32.705Z,589.60
2022-07-26T20:03:05.414Z,600.25
2022-07-26T20:05:32.814Z,650.65
2022-07-26T20:08:01.363Z,580.25
2022-07-26T20:10:32.220Z,598.20
2022-07-26T20:12:59.882Z,596.95
2022-07-26T20:15:30.140Z,601.42
2022-07-26T20:17:57.928Z,610.95
2022-07-26T20:20:25.775Z,587.67
2022-07-26T20:22:55.763Z,594.45
2022-07-26T20:25:27.803Z,603.05
2022-07-26T20:27:55.314Z,596.92
2022-07-26T20:30:22.912Z,592.20
2022-07-26T20:32:53.134Z,617.05
2022-07-26T20:35:20.518Z,607.30
2022-07-26T20:37:48.716Z,599.90
2022-07-26T20:40:18.871Z,602.10
2022-07-26T20:42:50.336Z,590.17
2022-07-26T20:45:18.427Z,606.72
2022-07-26T20:47:45.669Z,596.33
2022-07-26T20:50:13.127Z,587.83
2022-07-26T20:52:40.572Z,598.33
2022-07-26T20:55:08.397Z,619.60
2022-07-26T20:57:38.433Z,604.67
2022-07-26T21:00:11.164Z,608.13
2022-07-26T21:02:39.146Z,632.20
2022-07-26T21:05:07.653Z,614.00
2022-07-26T21:07:55.610Z,599.03
2022-07-26T21:10:30.861Z,615.50
2022-07-26T21:13:00.370Z,600.30
2022-07-26T21:15:31.633Z,616.70
2022-07-26T21:17:59.153Z,599.88
2022-07-26T21:20:26.507Z,629.30
2022-07-26T21:23:03.679Z,623.88
2022-07-26T21:25:42.723Z,603.92
2022-07-26T21:28:12.464Z,620.10
2022-07-26T21:30:39.833Z,602.40
2022-07-26T21:33:07.895Z,616.30
2022-07-26T21:35:37.388Z,596.78
2022-07-26T21:38:08.465Z,625.95
2022-07-26T21:40:36.843Z,608.75
2022-07-26T21:43:04.894Z,600.92
2022-07-26T21:45:32.646Z,616.72
2022-07-26T21:47:59.971Z,596.55
2022-07-26T21:50:34.660Z,611.05
2022-07-26T21:53:03.606Z,597.85
2022-07-26T21:55:31.507Z,598.05
2022-07-26T21:58:01.337Z,589.33
2022-07-26T22:00:30.339Z,588.47
2022-07-26T22:03:03.447Z,596.78
2022-07-26T22:05:39.790Z,617.50
2022-07-26T22:08:14.583Z,622.47
2022-07-26T22:10:47.511Z,606.17
2022-07-26T22:13:25.534Z,607.08
2022-07-26T22:15:55.709Z,600.40
2022-07-26T22:18:29.023Z,595.67
2022-07-26T22:20:57.492Z,635.90
2022-07-26T22:23:34.448Z,619.58
2022-07-26T22:26:03.804Z,633.42
2022-07-26T22:28:33.609Z,636.10
2022-07-26T22:31:01.761Z,645.17
2022-07-26T22:33:29.472Z,619.45
2022-07-26T22:35:59.556Z,644.25
2022-07-26T22:38:27.131Z,641.75
2022-07-26T22:40:54.708Z,636.97
2022-07-26T22:43:28.154Z,639.88
2022-07-26T22:48:24.071Z,646.60
2022-07-26T22:50:56.242Z,625.10
2022-07-26T22:53:25.867Z,625.38
2022-07-26T22:55:53.256Z,650.35
2022-07-26T22:58:20.808Z,643.63
2022-07-26T23:00:49.662Z,616.90
2022-07-26T23:03:20.244Z,594.30
2022-07-26T23:05:50.449Z,610.25
2022-07-26T23:08:47.006Z,596.75
2022-07-26T23:11:10.755Z,607.53
2022-07-26T23:13:40.514Z,601.75
2022-07-26T23:16:10.117Z,580.15
2022-07-26T23:18:37.431Z,595.22
2022-07-26T23:21:07.264Z,591.20
2022-07-26T23:23:34.597Z,568.55
2022-07-26T23:26:06.864Z,580.55
2022-07-26T23:28:36.963Z,583.85
2022-07-26T23:31:10.863Z,581.63
2022-07-26T23:33:52.775Z,609.00
2022-07-26T23:36:23.898Z,588.67
2022-07-26T23:38:51.703Z,583.85
2022-07-26T23:41:22.304Z,581.60
2022-07-26T23:43:50.072Z,545.17
2022-07-26T23:46:18.458Z,502.83
2022-07-26T23:48:46.189Z,516.58
2022-07-26T23:51:16.065Z,519.47
2022-07-26T23:53:45.865Z,514.38
2022-07-26T23:56:15.600Z,556.75
2022-07-26T23:58:46.359Z,598.25
